Time;durP1;ratioP1;P1;durP2;ratioP2;P2;SDS_P1;SDS_P2;PMS_P1;PMS_P2;Temp;Humidity;BMP_temperature;BMP_pressure;BME280_temperature;BME280_humidity;BME280_pressure;Samples;Min_cycle;Max_cycle;Signal;HPM_P1;HPM_P2
2021/12/28 00:00:14;;;;;;;6.03;3.08;;;;;;;19.31;37.18;99586.44;5076518;28;20085;-62
2021/12/28 00:02:41;;;;;;;4.20;3.35;;;;;;;19.32;37.58;99582.78;5073583;28;20042;-63
2021/12/28 00:05:09;;;;;;;3.80;3.03;;;;;;;19.30;37.44;99570.81;5075829;28;20372;-62
2021/12/28 00:07:34;;;;;;;5.75;3.50;;;;;;;19.14;37.60;99563.31;5073288;28;20093;-62
2021/12/28 00:10:00;;;;;;;4.28;3.20;;;;;;;19.16;37.74;99569.22;5071005;28;20036;-62
2021/12/28 00:12:29;;;;;;;4.63;3.42;;;;;;;19.19;37.64;99568.78;5071615;28;20444;-62
2021/12/28 00:15:05;;;;;;;6.33;3.10;;;;;;;19.10;37.81;99560.28;5073866;28;20119;-62
2021/12/28 00:20:14;;;;;;;4.05;3.13;;;;;;;19.05;37.91;99556.66;5077673;28;20667;-62
2021/12/28 00:22:40;;;;;;;3.80;2.92;;;;;;;19.11;37.70;99569.84;5074028;28;20040;-62
2021/12/28 00:25:06;;;;;;;4.03;3.40;;;;;;;19.02;37.84;99566.56;5077712;28;20040;-63
2021/12/28 00:27:32;;;;;;;4.28;3.17;;;;;;;18.99;38.08;99568.81;5059176;28;20043;-62
2021/12/28 00:29:58;;;;;;;4.68;3.42;;;;;;;18.97;37.86;99569.03;5057127;28;20068;-62
2021/12/28 00:32:23;;;;;;;3.53;2.85;;;;;;;18.89;38.22;99565.81;5076128;28;20178;-63
2021/12/28 00:34:49;;;;;;;4.97;3.65;;;;;;;18.89;38.04;99565.81;5075437;28;20214;-63
2021/12/28 00:37:15;;;;;;;4.30;3.10;;;;;;;18.95;37.88;99573.69;5074865;28;20532;-62
2021/12/28 00:39:40;;;;;;;3.63;3.08;;;;;;;18.85;38.07;99556.66;5076743;28;20048;-62
2021/12/28 00:42:07;;;;;;;4.38;3.33;;;;;;;18.88;38.08;99564.19;5074915;28;20028;-62
2021/12/28 00:44:33;;;;;;;3.95;3.25;;;;;;;18.79;38.27;99568.03;5041977;28;20155;-62
2021/12/28 00:46:59;;;;;;;4.80;3.42;;;;;;;18.78;38.21;99556.66;5075616;28;20044;-63
2021/12/28 00:49:25;;;;;;;4.28;3.33;;;;;;;18.90;38.04;99559.50;5082594;28;20128;-62
2021/12/28 00:51:50;;;;;;;4.75;3.15;;;;;;;18.78;38.11;99555.84;5079548;28;20131;-62
2021/12/28 00:54:16;;;;;;;3.38;2.83;;;;;;;18.69;38.40;99558.69;5074895;28;20032;-62
2021/12/28 00:56:41;;;;;;;4.20;3.05;;;;;;;18.69;38.56;99553.44;5079558;28;20144;-62
2021/12/28 00:59:07;;;;;;;4.15;3.35;;;;;;;18.72;38.27;99562.75;5079707;28;20505;-62
2021/12/28 01:01:33;;;;;;;4.40;3.17;;;;;;;18.66;38.53;99563.53;5075583;28;20025;-62
2021/12/28 01:03:59;;;;;;;4.13;3.08;;;;;;;18.66;38.42;99560.91;5074344;28;20497;-62
2021/12/28 01:06:24;;;;;;;4.05;3.20;;;;;;;18.60;38.54;99561.69;5071295;28;20044;-62
2021/12/28 01:08:50;;;;;;;3.50;2.72;;;;;;;18.58;38.62;99569.81;5080774;28;20035;-62
2021/12/28 01:11:15;;;;;;;3.92;2.88;;;;;;;18.53;38.66;99558.25;5079720;28;20133;-62
2021/12/28 01:13:41;;;;;;;3.40;2.90;;;;;;;18.60;38.48;99561.69;5080755;28;20044;-62
2021/12/28 01:16:08;;;;;;;6.97;3.50;;;;;;;18.53;38.63;99561.69;5074813;28;20036;-62
2021/12/28 01:18:34;;;;;;;7.07;3.38;;;;;;;18.55;38.72;99561.50;5077059;28;20047;-62
2021/12/28 01:21:00;;;;;;;4.05;2.97;;;;;;;18.52;38.60;99560.06;5079344;28;20036;-62
2021/12/28 01:23:26;;;;;;;4.18;3.13;;;;;;;18.52;38.63;99562.72;5081016;28;20161;-62
2021/12/28 01:25:51;;;;;;;3.83;3.03;;;;;;;18.45;38.74;99555.78;5077789;28;20040;-62
2021/12/28 01:28:17;;;;;;;4.82;3.17;;;;;;;18.52;38.46;99564.53;5080171;28;20055;-62
2021/12/28 01:30:43;;;;;;;4.07;3.08;;;;;;;18.47;38.70;99566.94;5077332;28;20036;-63
2021/12/28 01:33:10;;;;;;;4.05;2.95;;;;;;;18.49;38.71;99563.13;5077278;28;20047;-62
2021/12/28 01:35:36;;;;;;;4.60;3.17;;;;;;;18.43;38.67;99564.72;5079304;28;20040;-62
2021/12/28 01:38:02;;;;;;;3.90;3.00;;;;;;;18.40;38.71;99551.94;5081717;28;20509;-62
2021/12/28 01:40:32;;;;;;;3.47;2.60;;;;;;;18.40;38.75;99556.41;5079057;28;20067;-62
2021/12/28 01:43:12;;;;;;;4.38;3.33;;;;;;;18.39;38.74;99550.31;5078429;28;20523;-63
2021/12/28 01:46:05;;;;;;;3.65;3.05;;;;;;;18.33;38.75;99547.69;5074293;28;20352;-63
2021/12/28 01:48:33;;;;;;;3.80;3.08;;;;;;;18.38;38.80;99546.06;5076586;28;20061;-62
2021/12/28 01:51:03;;;;;;;4.10;2.92;;;;;;;18.35;38.75;99551.75;5078563;28;20524;-63
2021/12/28 01:53:30;;;;;;;3.28;2.83;;;;;;;18.30;38.80;99555.97;5079010;28;20040;-62
2021/12/28 01:56:00;;;;;;;3.90;3.10;;;;;;;18.33;38.87;99547.69;5080148;28;20036;-62
2021/12/28 01:58:26;;;;;;;4.45;2.90;;;;;;;18.30;38.81;99550.69;5079779;28;20059;-63
2021/12/28 02:00:54;;;;;;;5.05;3.10;;;;;;;18.28;38.87;99537.72;5077212;28;20139;-62
2021/12/28 02:03:22;;;;;;;3.95;2.90;;;;;;;18.22;38.90;99537.72;5080439;28;20748;-62
2021/12/28 02:05:48;;;;;;;4.22;2.90;;;;;;;18.27;38.91;99545.84;5077870;28;20036;-62
2021/12/28 02:08:15;;;;;;;4.93;3.17;;;;;;;18.22;39.00;99541.16;5078955;28;20044;-62
2021/12/28 02:10:43;;;;;;;3.67;2.80;;;;;;;18.29;38.65;99535.91;5075024;28;20067;-62
2021/12/28 02:13:09;;;;;;;3.50;2.80;;;;;;;18.25;38.81;99519.69;5078679;28;20036;-62
2021/12/28 02:15:36;;;;;;;3.97;3.17;;;;;;;17.92;38.66;99468.75;5077710;28;20504;-62
2021/12/28 02:18:04;;;;;;;3.63;2.65;;;;;;;18.28;38.81;99521.91;5074405;28;20040;-62
2021/12/28 02:20:29;;;;;;;3.90;3.10;;;;;;;18.30;38.81;99522.53;5078153;28;20575;-62
2021/12/28 02:22:56;;;;;;;4.38;3.03;;;;;;;18.30;38.67;99526.97;5077302;28;20044;-62
2021/12/28 02:25:22;;;;;;;6.72;3.58;;;;;;;18.22;38.85;99521.91;5075800;28;20039;-62
2021/12/28 02:27:47;;;;;;;4.00;3.10;;;;;;;18.23;38.92;99510.38;5081750;28;20114;-62
2021/12/28 02:30:17;;;;;;;3.50;3.00;;;;;;;18.29;38.56;99517.44;5072869;28;20039;-62
2021/12/28 02:32:44;;;;;;;4.03;3.00;;;;;;;18.23;38.78;99519.06;5072676;28;20075;-62
2021/12/28 02:35:16;;;;;;;3.95;3.25;;;;;;;18.23;38.62;99524.34;5060803;28;20708;-62
2021/12/28 02:37:42;;;;;;;4.57;3.42;;;;;;;18.21;38.71;99520.28;5079397;28;20528;-62
2021/12/28 02:40:10;;;;;;;3.45;2.97;;;;;;;18.23;38.68;99516.44;5050478;28;20079;-63
2021/12/28 02:42:36;;;;;;;4.13;3.00;;;;;;;18.16;39.03;99504.28;5078307;28;20078;-62
2021/12/28 02:45:13;;;;;;;4.32;3.38;;;;;;;18.12;38.72;99498.56;5077312;28;20032;-62
2021/12/28 02:47:41;;;;;;;4.18;2.90;;;;;;;18.14;38.89;99508.94;5070943;28;20039;-62
2021/12/28 02:50:12;;;;;;;4.07;3.28;;;;;;;18.09;39.08;99496.34;5077404;28;20032;-62
2021/12/28 02:52:38;;;;;;;4.43;3.03;;;;;;;18.18;38.63;99499.63;5080397;28;20027;-62
2021/12/28 02:55:10;;;;;;;3.58;2.90;;;;;;;18.12;38.80;99486.22;5076021;28;20635;-62
2021/12/28 02:57:36;;;;;;;4.43;2.97;;;;;;;18.16;38.81;99489.28;5082624;28;20069;-63
2021/12/28 03:00:05;;;;;;;3.60;3.00;;;;;;;18.13;38.90;99489.66;5079482;28;20063;-62
2021/12/28 03:02:31;;;;;;;4.18;3.10;;;;;;;18.14;38.81;99491.31;5077750;28;20040;-62
2021/12/28 03:04:56;;;;;;;3.53;3.08;;;;;;;18.15;38.58;99492.13;5077117;28;20078;-62
2021/12/28 03:07:22;;;;;;;4.45;3.00;;;;;;;18.12;38.71;99494.13;5074038;28;20063;-62
2021/12/28 03:09:49;;;;;;;3.80;3.03;;;;;;;18.18;38.72;99494.34;5070522;28;20047;-62
2021/12/28 03:12:14;;;;;;;3.15;2.78;;;;;;;18.17;38.66;99492.72;5072685;28;20139;-62
2021/12/28 03:14:40;;;;;;;3.60;2.95;;;;;;;18.10;38.89;99492.69;5075492;28;20048;-62
2021/12/28 03:17:06;;;;;;;4.35;3.20;;;;;;;18.12;38.81;99488.84;5074684;28;20485;-62
2021/12/28 03:19:31;;;;;;;4.57;3.30;;;;;;;18.15;38.82;99486.84;5073895;28;20063;-62
2021/12/28 03:22:01;;;;;;;3.92;2.90;;;;;;;18.08;38.59;99484.19;5073910;28;20032;-62
2021/12/28 03:24:27;;;;;;;6.05;3.20;;;;;;;18.14;38.60;99478.13;5081125;28;20036;-62
2021/12/28 03:26:53;;;;;;;3.85;2.97;;;;;;;18.16;38.59;99476.09;5073488;28;20184;-62
2021/12/28 03:29:20;;;;;;;4.60;3.65;;;;;;;18.17;38.66;99480.38;5073074;28;20059;-62
2021/12/28 03:31:47;;;;;;;4.22;3.40;;;;;;;18.10;38.75;99479.53;5076373;28;20486;-62
2021/12/28 03:34:13;;;;;;;4.35;3.45;;;;;;;18.04;38.86;99475.06;5075562;28;20051;-62
2021/12/28 03:36:41;;;;;;;3.22;2.85;;;;;;;18.04;38.67;99461.91;5078705;28;20191;-62
2021/12/28 03:39:06;;;;;;;4.30;3.42;;;;;;;18.05;38.74;99472.22;5076665;28;20033;-62
2021/12/28 03:41:32;;;;;;;4.07;3.05;;;;;;;18.05;38.68;99466.97;5072869;28;20482;-62
2021/12/28 03:43:59;;;;;;;3.60;3.00;;;;;;;18.01;38.69;99476.28;5072225;28;20115;-62
2021/12/28 03:46:26;;;;;;;4.28;3.17;;;;;;;18.04;38.93;99473.25;5076258;28;20057;-62
2021/12/28 03:48:52;;;;;;;4.25;3.28;;;;;;;18.02;38.90;99467.38;5077996;28;20406;-62
2021/12/28 03:51:18;;;;;;;3.85;2.97;;;;;;;18.05;38.58;99472.22;5075654;28;20107;-62
2021/12/28 03:53:46;;;;;;;4.47;3.40;;;;;;;18.09;38.69;99464.75;5075919;28;20804;-62
2021/12/28 03:56:12;;;;;;;4.50;3.67;;;;;;;17.95;38.76;99456.00;5061777;28;20051;-62
2021/12/28 03:58:40;;;;;;;4.13;3.25;;;;;;;18.00;38.81;99469.41;5073121;28;20097;-62
2021/12/28 04:01:06;;;;;;;4.22;3.28;;;;;;;18.01;38.76;99473.66;5072487;28;20047;-62
2021/12/28 04:03:32;;;;;;;4.55;3.47;;;;;;;17.93;38.53;99457.22;5073100;28;20044;-62
2021/12/28 04:05:59;;;;;;;5.25;3.17;;;;;;;18.00;38.85;99461.50;5071639;28;20047;-63
2021/12/28 04:08:27;;;;;;;4.20;3.30;;;;;;;18.01;38.63;99460.47;5074648;28;20043;-62
2021/12/28 04:10:56;;;;;;;5.65;4.03;;;;;;;18.01;38.58;99457.84;5072148;28;20020;-62
2021/12/28 04:13:23;;;;;;;3.67;3.20;;;;;;;17.89;38.89;99454.16;5076564;28;20044;-62
2021/12/28 04:15:49;;;;;;;4.30;3.55;;;;;;;17.89;38.90;99451.53;5072002;28;20134;-62
2021/12/28 04:18:17;;;;;;;4.15;3.10;;;;;;;18.02;38.68;99450.75;5073690;28;20127;-62
2021/12/28 04:20:42;;;;;;;4.20;3.00;;;;;;;18.16;38.50;99438.41;5072385;28;20042;-62
2021/12/28 04:23:08;;;;;;;3.30;3.00;;;;;;;18.28;38.01;99442.03;5075756;28;20905;-62
2021/12/28 04:25:34;;;;;;;3.58;2.90;;;;;;;18.37;38.00;99443.47;5076892;28;20040;-62
2021/12/28 04:27:59;;;;;;;3.63;3.20;;;;;;;18.36;37.97;99440.03;5075648;28;20532;-63
2021/12/28 04:30:25;;;;;;;4.65;3.13;;;;;;;18.35;38.05;99429.69;5076629;28;20185;-62
2021/12/28 04:32:51;;;;;;;3.17;2.88;;;;;;;18.43;38.08;99430.28;5071685;28;20056;-62
2021/12/28 04:35:17;;;;;;;3.63;2.90;;;;;;;18.59;37.92;99438.78;5077106;28;20119;-62
2021/12/28 04:37:43;;;;;;;3.85;3.10;;;;;;;18.64;37.73;99434.56;5074367;28;20040;-62
2021/12/28 04:40:11;;;;;;;4.10;2.83;;;;;;;18.89;37.66;99433.91;5075422;28;20833;-63
2021/12/28 04:42:38;;;;;;;4.20;3.30;;;;;;;19.13;37.10;99438.50;5072684;28;20410;-62
2021/12/28 04:45:06;;;;;;;4.43;3.28;;;;;;;19.28;37.08;99431.13;5072958;28;20036;-63
2021/12/28 04:47:32;;;;;;;4.63;3.50;;;;;;;19.46;36.79;99424.34;5076464;28;20482;-62
2021/12/28 04:49:59;;;;;;;4.38;3.13;;;;;;;19.60;36.65;99434.69;5074323;28;20032;-62
2021/12/28 04:52:25;;;;;;;3.95;3.53;;;;;;;19.68;36.64;99430.97;5070889;28;20028;-62
2021/12/28 04:54:50;;;;;;;3.92;2.90;;;;;;;19.68;36.75;99432.81;5075147;28;20039;-62
2021/12/28 04:57:16;;;;;;;4.20;3.22;;;;;;;19.71;36.66;99421.81;5074916;28;20024;-63
2021/12/28 04:59:41;;;;;;;5.00;3.42;;;;;;;19.68;36.69;99415.13;5072803;28;20409;-63
2021/12/28 05:02:07;;;;;;;3.85;3.35;;;;;;;19.83;36.60;99428.84;5075301;28;20036;-62
2021/12/28 05:04:33;;;;;;;4.68;3.50;;;;;;;19.90;36.55;99426.16;5074073;28;20078;-62
2021/12/28 05:06:58;;;;;;;4.20;2.80;;;;;;;19.99;36.32;99429.34;5074291;28;20150;-62
2021/12/28 05:09:24;;;;;;;4.22;3.13;;;;;;;20.06;36.44;99416.91;5077972;28;20623;-62
2021/12/28 05:11:50;;;;;;;3.58;2.92;;;;;;;20.01;36.42;99408.81;5069052;28;20092;-62
2021/12/28 05:14:17;;;;;;;3.33;2.75;;;;;;;20.00;36.51;99405.38;5074369;28;20032;-63
2021/12/28 05:16:43;;;;;;;3.55;2.92;;;;;;;20.07;36.55;99411.41;5073100;28;20036;-62
2021/12/28 05:19:09;;;;;;;4.50;3.08;;;;;;;20.08;36.45;99404.28;5071968;28;20465;-62
2021/12/28 05:21:36;;;;;;;3.30;2.70;;;;;;;20.21;36.26;99418.19;5076324;28;20040;-62
2021/12/28 05:24:02;;;;;;;3.10;2.80;;;;;;;20.15;36.52;99410.34;5070940;28;20044;-62
2021/12/28 05:26:27;;;;;;;3.15;2.83;;;;;;;19.66;36.40;99316.00;5072719;28;20025;-62
2021/12/28 05:28:53;;;;;;;3.97;3.15;;;;;;;20.22;36.40;99397.88;5072319;28;20044;-63
2021/12/28 05:31:19;;;;;;;4.80;3.25;;;;;;;20.23;36.33;99391.53;5072284;28;20486;-64
2021/12/28 05:33:46;;;;;;;3.88;3.10;;;;;;;20.20;36.36;99392.78;5075829;28;20075;-62
2021/12/28 05:36:11;;;;;;;3.78;3.03;;;;;;;20.20;36.42;99384.06;5080588;28;20040;-63
2021/12/28 05:38:37;;;;;;;4.72;3.08;;;;;;;20.26;36.39;99399.03;5080141;28;20437;-62
2021/12/28 05:44:58;;;;;;;3.40;2.92;;;;;;;20.36;36.33;99380.06;5067980;28;20058;-62
2021/12/28 05:47:23;;;;;;;4.13;3.53;;;;;;;20.41;36.17;99374.94;5074474;28;20032;-62
2021/12/28 05:49:49;;;;;;;3.78;3.10;;;;;;;20.41;36.25;99365.19;5072341;28;20636;-62
2021/12/28 05:52:14;;;;;;;3.92;3.05;;;;;;;20.35;36.39;99359.94;5079401;28;20040;-62
2021/12/28 05:54:40;;;;;;;4.28;3.10;;;;;;;20.39;36.36;99350.53;5077316;28;20052;-62
2021/12/28 05:57:07;;;;;;;3.67;2.92;;;;;;;20.44;36.21;99354.16;5077693;28;20032;-62
2021/12/28 05:59:33;;;;;;;3.10;2.80;;;;;;;20.45;36.35;99352.31;5069634;28;20048;-62
2021/12/28 06:01:59;;;;;;;3.88;3.08;;;;;;;20.43;36.28;99349.09;5077860;28;20153;-63
2021/12/28 06:04:24;;;;;;;3.42;2.95;;;;;;;20.51;36.10;99359.41;5081392;28;20058;-62
2021/12/28 06:06:50;;;;;;;4.47;3.03;;;;;;;20.49;36.30;99353.53;5075394;28;20045;-62
2021/12/28 06:09:15;;;;;;;3.25;2.65;;;;;;;20.44;36.48;99351.50;5077963;28;20094;-62
2021/12/28 06:11:41;;;;;;;3.30;2.83;;;;;;;20.47;36.26;99345.00;5076349;28;20098;-62
2021/12/28 06:14:06;;;;;;;3.20;2.85;;;;;;;20.41;36.31;99346.66;5077166;28;20044;-62
2021/12/28 06:16:34;;;;;;;3.42;2.90;;;;;;;20.46;36.22;99352.09;5072664;28;20043;-62
2021/12/28 06:19:00;;;;;;;4.72;3.20;;;;;;;20.50;36.17;99345.38;5080667;28;20123;-62
2021/12/28 06:21:27;;;;;;;4.28;3.25;;;;;;;20.47;36.25;99343.16;5080988;28;20123;-62
2021/12/28 06:23:53;;;;;;;3.97;3.28;;;;;;;20.58;36.17;99346.09;5077222;28;20043;-62
2021/12/28 06:26:18;;;;;;;4.53;3.30;;;;;;;20.59;36.22;99347.72;5077587;28;20039;-62
2021/12/28 06:28:44;;;;;;;3.45;2.88;;;;;;;20.62;36.09;99350.72;5080032;28;20044;-62
2021/12/28 06:31:09;;;;;;;4.65;3.08;;;;;;;20.66;35.99;99340.53;5059759;28;20122;-62
2021/12/28 06:33:35;;;;;;;4.85;3.30;;;;;;;20.64;36.12;99346.00;5075237;28;20056;-62
2021/12/28 06:36:01;;;;;;;3.47;2.85;;;;;;;20.64;36.10;99345.22;5060047;28;20036;-63
2021/12/28 06:38:26;;;;;;;4.47;3.35;;;;;;;20.63;36.15;99339.09;5075705;28;20164;-62
2021/12/28 06:40:52;;;;;;;4.93;3.35;;;;;;;20.58;36.17;99341.63;5079874;28;20406;-62
2021/12/28 06:43:17;;;;;;;3.53;2.90;;;;;;;20.61;36.03;99341.16;5080643;28;20043;-63
2021/12/28 06:45:43;;;;;;;3.67;2.90;;;;;;;20.71;35.89;99335.38;5065136;28;20040;-62
2021/12/28 06:48:08;;;;;;;4.07;3.10;;;;;;;20.73;35.92;99328.84;5061073;28;20028;-62
2021/12/28 06:50:34;;;;;;;4.43;2.80;;;;;;;20.68;35.96;99331.34;5077418;28;20067;-62
2021/12/28 06:53:00;;;;;;;3.55;3.00;;;;;;;20.69;35.79;99326.88;5075359;28;20036;-62
2021/12/28 06:55:25;;;;;;;3.65;2.85;;;;;;;20.58;36.11;99324.94;5075309;28;20044;-62
2021/12/28 06:57:51;;;;;;;4.40;3.03;;;;;;;20.52;36.17;99327.44;5077109;28;20063;-63
2021/12/28 07:00:18;;;;;;;3.40;2.72;;;;;;;20.54;36.13;99326.41;5042662;28;20047;-62
2021/12/28 07:02:44;;;;;;;5.00;3.17;;;;;;;20.51;36.18;99325.03;5079904;28;20031;-62
2021/12/28 07:05:11;;;;;;;3.15;2.80;;;;;;;20.60;36.03;99334.25;5080701;28;20032;-62
2021/12/28 07:07:38;;;;;;;3.80;2.60;;;;;;;20.65;36.09;99325.69;5073001;28;20032;-62
2021/12/28 07:10:06;;;;;;;3.88;2.83;;;;;;;20.65;36.08;99317.75;5077098;28;20024;-62
2021/12/28 07:12:32;;;;;;;3.50;2.80;;;;;;;20.72;35.97;99316.63;5079003;28;20127;-63
2021/12/28 07:14:58;;;;;;;3.50;2.90;;;;;;;20.71;36.00;99312.38;5074537;28;20474;-62
2021/12/28 07:17:26;;;;;;;5.43;3.42;;;;;;;20.73;35.99;99304.22;5073885;28;20102;-63
2021/12/28 07:19:55;;;;;;;4.07;3.35;;;;;;;20.68;36.02;99298.78;5076775;28;20414;-63
2021/12/28 07:22:20;;;;;;;4.20;3.20;;;;;;;20.72;36.04;99297.31;5050093;28;20032;-62
2021/12/28 07:24:46;;;;;;;3.45;2.95;;;;;;;20.69;36.00;99297.75;5076252;28;20044;-62
2021/12/28 07:27:12;;;;;;;4.03;3.20;;;;;;;20.70;35.97;99297.53;5080440;28;20096;-62
2021/12/28 07:29:38;;;;;;;4.25;3.03;;;;;;;20.61;35.88;99284.81;5075350;28;20043;-62
2021/12/28 07:32:06;;;;;;;3.25;2.38;;;;;;;20.60;36.17;99296.44;5075866;28;20044;-62
2021/12/28 07:34:32;;;;;;;3.92;3.17;;;;;;;20.66;36.06;99285.78;5076063;28;20078;-62
2021/12/28 07:36:58;;;;;;;3.08;2.78;;;;;;;20.75;35.95;99291.56;5074763;28;20063;-63
2021/12/28 07:39:23;;;;;;;4.00;2.90;;;;;;;20.76;35.86;99286.06;5077260;28;20075;-62
2021/12/28 07:41:49;;;;;;;10.35;3.30;;;;;;;20.70;35.99;99284.31;5079254;28;20035;-62
2021/12/28 07:44:16;;;;;;;3.60;2.80;;;;;;;20.71;35.93;99274.53;5072464;28;20044;-62
2021/12/28 07:46:42;;;;;;;3.97;3.08;;;;;;;20.72;36.05;99287.53;5076958;28;20562;-62
2021/12/28 07:49:07;;;;;;;4.22;3.05;;;;;;;20.77;36.13;99281.56;5071362;28;20131;-64
2021/12/28 07:51:33;;;;;;;4.32;2.88;;;;;;;20.77;35.87;99274.44;5071961;28;20068;-62
2021/12/28 07:53:59;;;;;;;4.28;3.15;;;;;;;20.77;36.11;99257.78;5071459;28;20044;-62
2021/12/28 07:56:24;;;;;;;3.95;2.85;;;;;;;20.84;35.94;99266.44;5075823;28;20127;-62
2021/12/28 07:58:50;;;;;;;3.78;2.88;;;;;;;20.81;36.06;99257.09;5075939;28;20097;-62
2021/12/28 08:01:16;;;;;;;3.63;2.67;;;;;;;20.83;36.03;99256.09;5076600;28;20047;-62
2021/12/28 08:03:41;;;;;;;2.95;2.50;;;;;;;20.80;36.08;99258.13;5075863;28;20035;-62
2021/12/28 08:06:07;;;;;;;3.55;3.13;;;;;;;20.87;36.13;99255.41;5073559;28;20968;-62
2021/12/28 08:08:32;;;;;;;3.13;2.53;;;;;;;20.83;36.05;99256.09;5074586;28;20051;-62
2021/12/28 08:10:58;;;;;;;3.05;2.72;;;;;;;20.77;36.08;99253.28;5075735;28;20055;-62
2021/12/28 08:13:24;;;;;;;3.65;2.58;;;;;;;20.73;36.14;99251.31;5072231;28;20062;-63
2021/12/28 08:15:49;;;;;;;3.78;2.80;;;;;;;20.87;35.96;99258.06;5075508;28;20032;-62
2021/12/28 08:18:15;;;;;;;3.45;2.80;;;;;;;20.79;36.17;99259.16;5072634;28;20036;-62
2021/12/28 08:20:40;;;;;;;3.45;2.75;;;;;;;20.78;35.97;99249.59;5076932;28;20714;-62
2021/12/28 08:23:07;;;;;;;3.80;2.58;;;;;;;20.95;35.46;99255.06;5076217;28;20767;-63
2021/12/28 08:25:33;;;;;;;2.42;2.22;;;;;;;20.74;35.97;99250.28;5072284;28;20443;-62
2021/12/28 08:28:01;;;;;;;4.30;2.60;;;;;;;20.65;36.18;99251.63;5074883;28;20032;-62
2021/12/28 08:30:27;;;;;;;4.18;2.80;;;;;;;20.65;36.19;99254.28;5077148;28;20143;-62
2021/12/28 08:32:52;;;;;;;3.10;2.67;;;;;;;20.52;36.10;99234.91;5077742;28;20167;-63
2021/12/28 08:35:18;;;;;;;3.50;2.63;;;;;;;20.52;36.37;99248.13;5072756;28;20071;-62
2021/12/28 08:37:44;;;;;;;3.72;2.70;;;;;;;20.55;36.39;99248.69;5055587;28;20399;-62
2021/12/28 08:40:11;;;;;;;3.05;2.67;;;;;;;20.36;36.40;99214.31;5074821;28;20097;-62
2021/12/28 08:42:37;;;;;;;3.88;2.67;;;;;;;20.54;36.26;99228.56;5076044;28;20047;-62
2021/12/28 08:45:04;;;;;;;3.42;2.92;;;;;;;20.53;36.41;99230.41;5075011;28;20035;-62
2021/12/28 08:47:29;;;;;;;3.38;2.45;;;;;;;20.58;36.40;99241.13;5056272;28;20521;-62
2021/12/28 08:49:56;;;;;;;3.90;2.75;;;;;;;20.63;36.17;99233.31;5076394;28;20048;-62
2021/12/28 08:52:23;;;;;;;3.88;2.92;;;;;;;20.73;36.25;99235.44;5075973;28;20097;-61
2021/12/28 08:54:50;;;;;;;4.68;2.58;;;;;;;20.61;36.47;99229.28;5076741;28;20877;-60
2021/12/28 08:57:17;;;;;;;3.53;2.60;;;;;;;20.51;36.44;99225.34;5074752;28;20699;-61
2021/12/28 08:59:43;;;;;;;5.20;3.17;;;;;;;20.51;36.58;99227.19;5072880;28;20032;-60
2021/12/28 09:02:09;;;;;;;3.30;2.38;;;;;;;20.50;36.58;99215.00;5063105;28;20028;-61
2021/12/28 09:04:36;;;;;;;3.85;2.53;;;;;;;20.42;36.79;99202.88;5072342;28;20047;-60
2021/12/28 09:07:02;;;;;;;4.78;2.50;;;;;;;20.50;36.57;99212.34;5070823;28;20394;-60
2021/12/28 09:09:28;;;;;;;4.20;2.50;;;;;;;20.51;36.58;99211.31;5074228;28;20081;-61
2021/12/28 09:11:54;;;;;;;4.47;2.55;;;;;;;20.50;36.55;99217.63;5077386;28;20040;-61
2021/12/28 09:14:19;;;;;;;3.78;2.35;;;;;;;20.56;36.46;99213.28;5080696;28;20106;-61
2021/12/28 09:16:45;;;;;;;2.55;2.25;;;;;;;20.50;36.53;99215.81;5081006;28;20032;-60
2021/12/28 09:19:10;;;;;;;3.13;2.55;;;;;;;20.56;36.44;99218.56;5073592;28;20094;-61
2021/12/28 09:21:36;;;;;;;2.45;2.22;;;;;;;20.48;36.48;99211.78;5077834;28;20046;-60
2021/12/28 09:24:02;;;;;;;4.03;2.38;;;;;;;20.50;36.56;99220.28;5073929;28;20733;-61
2021/12/28 09:26:27;;;;;;;2.90;2.10;;;;;;;20.47;36.57;99210.16;5079584;28;20115;-60
2021/12/28 09:28:53;;;;;;;2.40;2.15;;;;;;;20.45;36.59;99212.19;5079254;28;20039;-61
2021/12/28 09:31:18;;;;;;;4.30;2.63;;;;;;;20.43;36.61;99201.84;5076093;28;20513;-61
2021/12/28 09:33:44;;;;;;;3.33;2.35;;;;;;;20.40;36.60;99196.16;5075433;28;20056;-61
2021/12/28 09:36:14;;;;;;;4.60;2.53;;;;;;;20.39;36.61;99208.56;5076303;28;20128;-61
2021/12/28 09:38:41;;;;;;;3.33;2.53;;;;;;;20.37;36.67;99199.25;5058362;28;20051;-61
2021/12/28 09:41:06;;;;;;;4.07;2.45;;;;;;;20.38;36.61;99196.38;5078726;28;20040;-61
2021/12/28 09:43:32;;;;;;;3.58;2.72;;;;;;;20.39;36.45;99195.34;5079254;28;20081;-61
2021/12/28 09:45:58;;;;;;;2.83;2.20;;;;;;;20.36;36.63;99195.81;5078828;28;20038;-60
2021/12/28 09:48:24;;;;;;;2.70;2.00;;;;;;;20.47;36.80;99183.72;5077043;28;20181;-61
2021/12/28 09:50:50;;;;;;;3.20;2.40;;;;;;;20.61;36.88;99185.13;5045826;28;20044;-61
2021/12/28 09:53:15;;;;;;;4.65;2.50;;;;;;;20.81;36.83;99180.38;5074142;28;20048;-60
2021/12/28 09:55:42;;;;;;;4.80;2.50;;;;;;;20.97;36.80;99176.28;5076409;28;20040;-61
2021/12/28 09:58:08;;;;;;;4.07;2.47;;;;;;;21.27;36.76;99176.25;5077856;28;20046;-62
2021/12/28 10:00:34;;;;;;;4.40;2.58;;;;;;;21.55;37.20;99156.25;5077221;28;20038;-60
2021/12/28 10:03:00;;;;;;;4.80;2.38;;;;;;;21.74;36.62;99163.03;5076998;28;20445;-60
2021/12/28 10:05:27;;;;;;;5.47;2.42;;;;;;;21.88;36.33;99166.22;5046631;28;20039;-60
2021/12/28 10:08:01;;;;;;;5.00;2.67;;;;;;;21.82;36.59;99151.25;5068604;28;20151;-60
2021/12/28 10:10:29;;;;;;;4.85;2.38;;;;;;;22.08;35.91;99148.09;5082644;28;20936;-60
2021/12/28 10:13:01;;;;;;;4.20;2.63;;;;;;;22.03;36.21;99146.13;5051107;28;20024;-61
2021/12/28 10:15:33;;;;;;;7.32;2.22;;;;;;;22.13;36.09;99142.94;5071767;28;20044;-65
2021/12/28 10:18:01;;;;;;;5.28;2.60;;;;;;;22.09;36.43;99133.84;5043027;28;20043;-60
2021/12/28 10:20:32;;;;;;;5.28;2.17;;;;;;;22.41;35.62;99130.69;5054744;28;20398;-60
2021/12/28 10:23:02;;;;;;;6.85;2.55;;;;;;;22.26;35.95;99125.91;5035753;28;21284;-60
2021/12/28 10:25:40;;;;;;;5.32;2.10;;;;;;;22.35;35.93;99131.66;5072721;28;20036;-60
2021/12/28 10:28:15;;;;;;;4.28;2.40;;;;;;;22.34;36.11;99124.75;5048470;28;20036;-60
2021/12/28 10:30:44;;;;;;;4.85;2.50;;;;;;;22.44;35.56;99117.81;5076938;28;20171;-60
2021/12/28 10:33:13;;;;;;;6.60;2.88;;;;;;;22.30;36.03;99119.94;5047770;28;22628;-60
2021/12/28 10:35:58;;;;;;;5.40;2.30;;;;;;;22.41;35.69;99104.19;5075616;28;20036;-60
2021/12/28 10:38:27;;;;;;;5.70;2.38;;;;;;;22.64;35.37;99103.28;5044885;28;20802;-61
2021/12/28 10:40:57;;;;;;;4.80;2.30;;;;;;;22.56;35.03;99091.19;5061169;28;20032;-60
2021/12/28 10:43:29;;;;;;;6.32;1.95;;;;;;;22.26;35.98;99091.44;5073478;28;20094;-61
2021/12/28 10:46:00;;;;;;;5.18;2.42;;;;;;;22.47;35.52;99084.69;5051790;28;20043;-61
2021/12/28 10:48:31;;;;;;;5.25;2.30;;;;;;;22.43;35.34;99078.22;5078882;28;20934;-61
2021/12/28 10:51:06;;;;;;;3.65;1.70;;;;;;;22.40;35.51;99074.22;5046439;28;20036;-62
2021/12/28 10:54:12;;;;;;;4.15;2.03;;;;;;;22.25;35.86;99065.97;5074635;28;20039;-60
2021/12/28 10:56:47;;;;;;;2.65;1.90;;;;;;;22.55;35.13;99065.72;5033844;28;20054;-61
2021/12/28 10:59:14;;;;;;;4.10;2.20;;;;;;;22.46;35.54;99059.22;5070227;28;20731;-61
2021/12/28 11:01:42;;;;;;;6.10;1.88;;;;;;;22.26;35.67;99052.50;5042715;28;20085;-61
2021/12/28 11:04:12;;;;;;;5.07;2.10;;;;;;;22.31;35.46;99055.25;5071772;28;20869;-61
2021/12/28 11:06:47;;;;;;;4.13;2.05;;;;;;;22.02;36.06;99062.34;5043153;28;20570;-60
2021/12/28 11:09:16;;;;;;;4.20;1.80;;;;;;;21.79;35.88;99014.75;5062146;28;20496;-60
2021/12/28 11:11:43;;;;;;;3.60;2.00;;;;;;;21.90;35.77;99047.53;5041869;28;20040;-61
2021/12/28 11:14:17;;;;;;;4.32;1.95;;;;;;;21.95;35.86;99032.56;5070107;28;20870;-61
2021/12/28 11:16:52;;;;;;;4.20;2.33;;;;;;;22.00;35.83;99034.47;5053006;28;20040;-61
2021/12/28 11:19:36;;;;;;;4.53;1.95;;;;;;;21.97;35.75;99038.41;5067556;28;20028;-60
2021/12/28 11:22:11;;;;;;;4.85;2.28;;;;;;;21.74;36.29;99035.06;5026487;28;20438;-61
2021/12/28 11:24:43;;;;;;;2.78;1.90;;;;;;;21.49;36.20;99024.72;5050669;28;20041;-61
2021/12/28 11:27:19;;;;;;;2.75;2.00;;;;;;;21.41;36.57;99018.78;5032549;28;20059;-61
2021/12/28 11:29:44;;;;;;;3.60;1.90;;;;;;;21.47;36.46;99013.56;5046532;28;20028;-61
2021/12/28 11:32:16;;;;;;;4.55;2.20;;;;;;;21.61;36.34;99005.13;5057210;28;20059;-61
2021/12/28 11:34:43;;;;;;;6.18;2.05;;;;;;;21.48;36.11;98981.56;5013183;28;20040;-61
2021/12/28 11:37:23;;;;;;;5.35;2.15;;;;;;;21.85;35.68;98997.09;5053155;28;20029;-61
2021/12/28 11:39:55;;;;;;;2.85;2.03;;;;;;;21.80;35.77;98992.50;5033424;28;20565;-61